Time;durP1;ratioP1;P1;durP2;ratioP2;P2;SDS_P1;SDS_P2;PMS_P1;PMS_P2;Temp;Humidity;BMP_temperature;BMP_pressure;BME280_temperature;BME280_humidity;BME280_pressure;Samples;Min_cycle;Max_cycle;Signal;HPM_P1;HPM_P2
2022/09/22 00:00:07;;;;;;;10.07;4.80;;;10.90;99.90;;;-147.18;100.00;67318.16;5009397;28;20052;-81
2022/09/22 00:03:35;;;;;;;8.82;4.88;;;10.90;99.90;;;-147.18;100.00;67318.16;5005723;28;20117;-81
2022/09/22 00:07:03;;;;;;;9.55;4.90;;;10.90;99.90;;;-147.18;100.00;67318.16;4989396;28;20061;-81
2022/09/22 00:10:38;;;;;;;8.27;4.40;;;10.90;99.90;;;-147.18;100.00;67318.16;5009554;28;20119;-81
2022/09/22 00:14:05;;;;;;;6.95;4.18;;;10.90;99.90;;;-147.18;100.00;67318.16;4989935;28;20050;-81
2022/09/22 00:17:35;;;;;;;9.02;4.18;;;10.80;99.90;;;-147.18;100.00;67318.16;4994172;28;20184;-81
2022/09/22 00:21:06;;;;;;;9.02;4.57;;;10.80;99.90;;;-147.18;100.00;67318.16;4997156;28;20079;-81
2022/09/22 00:24:33;;;;;;;8.90;4.05;;;10.90;99.90;;;-147.18;100.00;67318.16;4996555;28;20042;-81
2022/09/22 00:27:59;;;;;;;8.95;4.32;;;10.70;99.90;;;-147.18;100.00;67318.16;5014313;28;20395;-81
2022/09/22 00:31:25;;;;;;;13.15;4.57;;;10.70;99.90;;;-147.18;100.00;67318.16;5009183;28;20070;-81
2022/09/22 00:34:53;;;;;;;8.93;5.10;;;10.70;99.90;;;-147.18;100.00;67318.16;5009210;28;20490;-81
2022/09/22 00:38:18;;;;;;;9.00;4.35;;;10.70;99.90;;;-147.18;100.00;67318.16;5008691;28;20410;-81
2022/09/22 00:41:49;;;;;;;10.50;4.70;;;10.70;99.90;;;-147.18;100.00;67318.16;5010069;28;20034;-81
2022/09/22 00:45:37;;;;;;;10.73;4.60;;;10.60;99.90;;;-147.18;100.00;67318.16;4989467;28;20132;-81
2022/09/22 00:49:06;;;;;;;7.45;4.57;;;10.60;99.90;;;-147.18;100.00;67318.16;5006273;28;20049;-81
2022/09/22 00:52:37;;;;;;;11.82;4.13;;;10.80;99.90;;;-147.18;100.00;67318.16;4994523;28;20046;-81
2022/09/22 00:56:09;;;;;;;8.68;4.40;;;10.60;99.90;;;-147.18;100.00;67318.16;5006315;28;20588;-81
2022/09/22 00:59:39;;;;;;;8.48;4.00;;;10.60;99.90;;;-147.18;100.00;67318.16;5009715;28;20046;-81
2022/09/22 01:03:07;;;;;;;10.45;4.43;;;10.50;99.90;;;-147.18;100.00;67318.16;4989922;28;20088;-81
2022/09/22 01:06:38;;;;;;;8.98;4.40;;;10.50;99.90;;;-147.18;100.00;67318.16;4997067;28;20042;-81
2022/09/22 01:10:04;;;;;;;8.30;4.50;;;10.50;99.90;;;-147.18;100.00;67318.16;4989844;28;20480;-81
2022/09/22 01:13:37;;;;;;;9.02;4.68;;;10.50;99.90;;;-147.18;100.00;67318.16;4997825;28;20041;-81
2022/09/22 01:21:19;;;;;;;8.00;4.18;;;10.40;99.90;;;-147.18;100.00;67318.16;5046483;28;20197;-85
2022/09/22 01:25:15;;;;;;;9.30;4.35;;;10.40;99.90;;;-147.18;100.00;67318.16;5011234;28;20052;-85
2022/09/22 01:29:36;;;;;;;9.82;4.63;;;10.40;99.90;;;-147.18;100.00;67318.16;5014070;28;20042;-87
2022/09/22 01:33:13;;;;;;;7.35;4.00;;;10.30;99.90;;;-147.18;100.00;67318.16;5012928;28;20038;-86
2022/09/22 01:36:52;;;;;;;7.97;4.18;;;10.30;99.90;;;-147.18;100.00;67318.16;4993067;28;20133;-87
2022/09/22 01:40:26;;;;;;;9.50;4.63;;;10.30;99.90;;;-147.18;100.00;67318.16;5007903;28;20042;-88
2022/09/22 01:43:56;;;;;;;11.80;4.63;;;10.30;99.90;;;-147.18;100.00;67318.16;5012773;28;20500;-87
2022/09/22 01:47:31;;;;;;;9.15;4.50;;;10.30;99.90;;;-147.18;100.00;67318.16;5010323;28;20056;-88
2022/09/22 01:51:03;;;;;;;11.35;4.55;;;10.30;99.90;;;-147.18;100.00;67318.16;5004217;28;20034;-87
2022/09/22 01:54:32;;;;;;;9.15;4.43;;;10.30;99.90;;;-147.18;100.00;67318.16;5012654;28;20044;-88
2022/09/22 01:58:03;;;;;;;7.88;4.10;;;10.30;99.90;;;-147.18;100.00;67318.16;5011372;28;20399;-87
2022/09/22 02:01:30;;;;;;;8.55;4.18;;;10.20;99.90;;;-147.18;100.00;67318.16;5012828;28;20050;-88
2022/09/22 02:05:05;;;;;;;7.28;3.80;;;10.20;99.90;;;-147.18;100.00;67318.16;5000798;28;20058;-87
2022/09/22 02:08:37;;;;;;;8.05;3.90;;;10.20;99.90;;;-147.18;100.00;67318.16;5004200;28;20042;-87
2022/09/22 02:12:06;;;;;;;9.82;3.88;;;10.10;99.90;;;-147.18;100.00;67318.16;4993099;28;20050;-87
2022/09/22 02:19:24;;;;;;;6.80;3.38;;;10.10;99.90;;;-147.18;100.00;67318.16;5007405;28;20072;-88
2022/09/22 02:22:49;;;;;;;6.30;3.17;;;10.10;99.90;;;-147.18;100.00;67318.16;5023711;28;20050;-87
2022/09/22 02:26:17;;;;;;;10.70;3.50;;;10.10;99.90;;;-147.18;100.00;67318.16;5031158;28;20056;-87
2022/09/22 02:29:48;;;;;;;6.85;3.72;;;10.10;99.90;;;-147.18;100.00;67318.16;5030918;28;20045;-87
2022/09/22 02:33:16;;;;;;;8.38;3.65;;;10.10;99.90;;;-147.18;100.00;67318.16;5031085;28;20124;-87
2022/09/22 02:36:50;;;;;;;7.45;3.10;;;10.10;99.90;;;-147.18;100.00;67318.16;5011277;28;20574;-87
2022/09/22 02:40:26;;;;;;;8.20;3.80;;;10.10;99.90;;;-147.18;100.00;67318.16;5022135;28;20057;-87
2022/09/22 02:44:00;;;;;;;5.45;3.10;;;10.00;99.90;;;-147.18;100.00;67318.16;5030932;28;20041;-88
2022/09/22 02:47:33;;;;;;;6.07;3.17;;;10.00;99.90;;;-147.18;100.00;67318.16;5011661;28;20053;-88
2022/09/22 02:51:05;;;;;;;6.57;3.25;;;10.00;99.90;;;-147.18;100.00;67318.16;5027249;28;20433;-89
2022/09/22 02:54:32;;;;;;;6.93;3.10;;;10.00;99.90;;;-147.18;100.00;67318.16;5031094;28;20055;-87
2022/09/22 02:57:58;;;;;;;5.55;3.08;;;9.90;99.90;;;-147.18;100.00;67318.16;5030282;28;20045;-87
2022/09/22 03:01:24;;;;;;;7.95;3.30;;;9.90;99.90;;;-147.18;100.00;67318.16;5023891;28;20041;-88
2022/09/22 03:04:50;;;;;;;4.93;2.60;;;9.90;99.90;;;-147.18;100.00;67318.16;5029304;28;20049;-88
2022/09/22 03:08:17;;;;;;;7.55;2.95;;;9.90;99.90;;;-147.18;100.00;67318.16;5012586;28;20053;-87
2022/09/22 03:11:42;;;;;;;6.78;2.80;;;9.80;99.90;;;-147.18;100.00;67318.16;5017664;28;20053;-87
2022/09/22 03:15:08;;;;;;;5.60;2.83;;;9.80;99.90;;;-147.18;100.00;67318.16;5022381;28;20048;-86
2022/09/22 03:18:34;;;;;;;6.55;2.60;;;9.80;99.90;;;-147.18;100.00;67318.16;5029029;28;20042;-88
2022/09/22 03:22:00;;;;;;;5.30;2.58;;;9.80;99.90;;;-147.18;100.00;67318.16;5031003;28;20046;-87
2022/09/22 03:25:27;;;;;;;4.47;2.50;;;9.80;99.90;;;-147.18;100.00;67318.16;5012005;28;20506;-87
2022/09/22 03:28:53;;;;;;;7.05;2.80;;;9.80;99.90;;;-147.18;100.00;67318.16;5013040;28;20056;-88
2022/09/22 03:32:19;;;;;;;6.97;2.72;;;9.80;99.90;;;-147.18;100.00;67318.16;5026811;28;20426;-87
2022/09/22 03:35:44;;;;;;;4.80;2.38;;;9.70;99.90;;;-147.18;100.00;67318.16;5029935;28;20038;-87
2022/09/22 03:39:10;;;;;;;9.05;2.70;;;9.70;99.90;;;-147.18;100.00;67318.16;5028288;28;20045;-88
2022/09/22 03:42:37;;;;;;;4.88;2.55;;;9.70;99.90;;;-147.18;100.00;67318.16;5021256;28;20132;-88
2022/09/22 03:46:04;;;;;;;4.47;2.45;;;9.70;99.90;;;-147.18;100.00;67318.16;5016052;28;20046;-88
2022/09/22 03:49:30;;;;;;;4.70;2.50;;;9.70;99.90;;;-147.18;100.00;67318.16;5023126;28;20568;-88
2022/09/22 03:52:56;;;;;;;6.95;2.75;;;9.70;99.90;;;-147.18;100.00;67318.16;5029510;28;20132;-87
2022/09/22 03:56:22;;;;;;;7.03;2.80;;;9.60;99.90;;;-147.18;100.00;67318.16;5036977;28;20044;-87
2022/09/22 03:59:49;;;;;;;6.47;2.72;;;9.60;99.90;;;-147.18;100.00;67318.16;5021321;28;20050;-88
2022/09/22 04:03:15;;;;;;;8.52;3.15;;;9.60;99.90;;;-147.18;100.00;67318.16;5013441;28;20041;-88
2022/09/22 04:06:48;;;;;;;5.25;3.05;;;9.60;99.90;;;-147.18;100.00;67318.16;5018199;28;20042;-83
2022/09/22 04:10:13;;;;;;;5.20;2.80;;;9.60;99.90;;;-147.18;100.00;67318.16;5020635;28;20750;-92
2022/09/22 04:13:39;;;;;;;6.38;2.85;;;9.60;99.90;;;-147.18;100.00;67318.16;5021530;28;20038;-80
2022/09/22 04:17:06;;;;;;;5.93;2.92;;;9.50;99.90;;;-147.18;100.00;67318.16;5028880;28;20127;-80
2022/09/22 04:20:31;;;;;;;7.75;3.15;;;9.60;99.90;;;-147.18;100.00;67318.16;5025647;28;20045;-80
2022/09/22 04:23:57;;;;;;;5.63;2.92;;;9.50;99.90;;;-147.18;100.00;67318.16;5028727;28;20121;-80
2022/09/22 04:27:23;;;;;;;6.90;2.72;;;9.50;99.90;;;-147.18;100.00;67318.16;5020994;28;20056;-79
2022/09/22 04:30:49;;;;;;;8.75;2.53;;;9.60;99.90;;;-147.18;100.00;67318.16;5010238;28;20124;-79
2022/09/22 04:34:16;;;;;;;6.90;2.78;;;9.50;99.90;;;-147.18;100.00;67318.16;5009768;28;20046;-80
2022/09/22 04:37:42;;;;;;;6.63;2.60;;;9.60;99.90;;;-147.18;100.00;67318.16;5021167;28;20124;-83
2022/09/22 04:41:08;;;;;;;4.28;2.33;;;9.50;99.90;;;-147.18;100.00;67318.16;5026008;28;20038;-81
2022/09/22 04:44:33;;;;;;;5.90;2.55;;;9.40;99.90;;;-147.18;100.00;67318.16;5016276;28;20104;-80
2022/09/22 04:47:59;;;;;;;5.13;2.67;;;9.40;99.90;;;-147.18;100.00;67318.16;5023973;28;20441;-80
2022/09/22 04:51:26;;;;;;;6.88;2.58;;;9.40;99.90;;;-147.18;100.00;67318.16;5028962;28;20401;-81
2022/09/22 04:54:52;;;;;;;7.15;2.40;;;9.40;99.90;;;-147.18;100.00;67318.16;5025745;28;20066;-83
2022/09/22 04:58:17;;;;;;;4.93;2.30;;;9.40;99.90;;;-147.18;100.00;67318.16;5007923;28;20175;-82
2022/09/22 05:01:43;;;;;;;5.35;2.22;;;9.40;99.90;;;-147.18;100.00;67318.16;5018091;28;20042;-83
2022/09/22 05:05:14;;;;;;;5.18;2.50;;;9.40;99.90;;;-147.18;100.00;67318.16;5023767;28;20051;-81
2022/09/22 05:08:42;;;;;;;5.15;2.60;;;9.30;99.90;;;-147.18;100.00;67318.16;5021354;28;20136;-86
2022/09/22 05:12:07;;;;;;;8.27;3.13;;;9.30;99.90;;;-147.18;100.00;67318.16;5026671;28;20056;-85
2022/09/22 05:15:36;;;;;;;7.70;3.10;;;9.30;99.90;;;-147.18;100.00;67318.16;5018317;28;20108;-84
2022/09/22 05:19:02;;;;;;;10.00;3.17;;;9.30;99.90;;;-147.18;100.00;67318.16;5018708;28;20105;-84
2022/09/22 05:22:28;;;;;;;7.15;4.10;;;9.30;99.90;;;-147.18;100.00;67318.16;5012520;28;20053;-86
2022/09/22 05:25:57;;;;;;;10.48;4.40;;;9.30;99.90;;;-147.18;100.00;67318.16;5024124;28;20048;-85
2022/09/22 05:29:26;;;;;;;12.18;5.10;;;9.30;99.90;;;-147.18;100.00;67318.16;5020253;28;20212;-86
2022/09/22 05:32:52;;;;;;;11.38;5.55;;;9.30;99.90;;;-147.18;100.00;67318.16;5023636;28;20049;-83
2022/09/22 05:36:20;;;;;;;13.38;5.53;;;9.30;99.90;;;-147.18;100.00;67318.16;5031103;28;20041;-86
2022/09/22 05:39:45;;;;;;;9.48;4.78;;;9.30;99.90;;;-147.18;100.00;67318.16;5028814;28;20046;-86
2022/09/22 05:43:13;;;;;;;11.40;4.22;;;9.30;99.90;;;-147.18;100.00;67318.16;5012799;28;20461;-85
2022/09/22 05:46:45;;;;;;;8.60;4.10;;;9.20;99.90;;;-147.18;100.00;67318.16;5023276;28;20038;-87
2022/09/22 05:50:12;;;;;;;8.60;4.35;;;9.20;99.90;;;-147.18;100.00;67318.16;5027085;28;20053;-85
2022/09/22 05:53:38;;;;;;;9.70;4.72;;;9.30;99.90;;;-147.18;100.00;67318.16;5018326;28;20038;-86
2022/09/22 05:57:04;;;;;;;5.75;3.88;;;9.30;99.90;;;-147.18;100.00;67318.16;5029305;28;20363;-85
2022/09/22 06:00:31;;;;;;;6.22;3.70;;;9.30;99.90;;;-147.18;100.00;67318.16;5020979;28;20572;-86
2022/09/22 06:03:57;;;;;;;8.82;4.55;;;9.30;99.90;;;-147.18;100.00;67318.16;5029096;28;20046;-86
2022/09/22 06:07:22;;;;;;;9.20;4.35;;;9.30;99.90;;;-147.18;100.00;67318.16;5011946;28;20117;-85
2022/09/22 06:10:50;;;;;;;7.97;4.85;;;9.40;99.90;;;-147.18;100.00;67318.16;5020703;28;20045;-85
2022/09/22 06:14:16;;;;;;;9.52;4.50;;;9.40;99.90;;;-147.18;100.00;67318.16;5019868;28;20045;-86
2022/09/22 06:17:43;;;;;;;9.27;4.75;;;9.50;99.90;;;-147.18;100.00;67318.16;5042071;28;20172;-86
2022/09/22 06:21:09;;;;;;;7.85;4.45;;;9.60;99.90;;;-147.18;100.00;67318.16;5030347;28;20064;-86
2022/09/22 06:24:34;;;;;;;7.45;4.30;;;9.50;99.90;;;-147.18;100.00;67318.16;5030911;28;20049;-86
2022/09/22 06:28:03;;;;;;;8.65;4.00;;;9.60;99.90;;;-147.18;100.00;67318.16;5011833;28;20046;-86
2022/09/22 06:31:29;;;;;;;12.68;5.13;;;9.60;99.90;;;-147.18;100.00;67318.16;5029342;28;20053;-86
2022/09/22 06:35:00;;;;;;;9.52;5.10;;;9.70;99.90;;;-147.18;100.00;67318.16;5030877;28;20049;-85
2022/09/22 06:38:25;;;;;;;9.10;4.22;;;9.80;99.90;;;-147.18;100.00;67318.16;5018495;28;20297;-86
2022/09/22 06:41:51;;;;;;;12.30;4.60;;;9.80;99.90;;;-147.18;100.00;67318.16;5030125;28;20081;-85
2022/09/22 06:45:17;;;;;;;10.95;5.00;;;9.90;99.90;;;-147.18;100.00;67318.16;5016612;28;20502;-85
2022/09/22 06:48:44;;;;;;;12.88;4.60;;;10.00;99.90;;;-147.18;100.00;67318.16;5025343;28;20054;-85
2022/09/22 06:52:11;;;;;;;10.68;4.57;;;10.10;99.90;;;-147.18;100.00;67318.16;5022896;28;20069;-84
2022/09/22 06:55:37;;;;;;;12.32;5.32;;;10.20;99.90;;;-147.18;100.00;67318.16;5018209;28;20561;-88
2022/09/22 06:59:04;;;;;;;9.20;4.82;;;10.30;99.90;;;-147.18;100.00;67318.16;5021694;28;20650;-88
2022/09/22 07:02:30;;;;;;;14.15;5.13;;;10.40;99.90;;;-147.18;100.00;67318.16;5029991;28;20532;-86
2022/09/22 07:05:59;;;;;;;12.05;5.00;;;10.50;99.90;;;-147.18;100.00;67318.16;5026916;28;20041;-86
2022/09/22 07:09:27;;;;;;;8.07;4.45;;;10.60;99.90;;;-147.18;100.00;67318.16;5016943;28;20088;-85
2022/09/22 07:12:53;;;;;;;8.15;4.75;;;10.70;99.90;;;-147.18;100.00;67318.16;5016082;28;20518;-84
2022/09/22 07:16:19;;;;;;;10.43;4.22;;;10.80;99.90;;;-147.18;100.00;67318.16;5018299;28;20038;-84
2022/09/22 07:19:46;;;;;;;10.50;4.45;;;10.90;99.90;;;-147.18;100.00;67318.16;5018647;28;20050;-85
2022/09/22 07:23:17;;;;;;;11.32;4.80;;;11.00;99.90;;;-147.18;100.00;67318.16;5021485;28;20394;-84
2022/09/22 07:26:50;;;;;;;11.13;5.53;;;11.00;99.90;;;-147.18;100.00;67318.16;5010217;28;20041;-85
2022/09/22 07:30:15;;;;;;;14.00;5.30;;;11.20;99.90;;;-147.18;100.00;67318.16;5021095;28;20041;-82
2022/09/22 07:33:42;;;;;;;12.27;4.93;;;11.30;99.90;;;-147.18;100.00;67318.16;5025769;28;20037;-83
2022/09/22 07:37:14;;;;;;;8.38;4.85;;;11.30;99.90;;;-147.18;100.00;67318.16;5020145;28;20041;-84
2022/09/22 07:40:40;;;;;;;9.88;4.45;;;11.40;99.90;;;-147.18;100.00;67318.16;5028674;28;20548;-83
2022/09/22 07:51:32;;;;;;;7.72;3.67;;;11.70;99.90;;;-147.18;100.00;67318.16;5026919;28;20038;-85
2022/09/22 07:54:58;;;;;;;12.15;4.60;;;11.80;99.90;;;-147.18;100.00;67318.16;5010701;28;20137;-84
2022/09/22 07:58:25;;;;;;;10.35;4.75;;;11.90;99.90;;;-147.18;100.00;67318.16;5026436;28;20124;-83
2022/09/22 08:01:52;;;;;;;10.85;4.30;;;12.10;99.90;;;-147.18;100.00;67318.16;5021103;28;20695;-84
2022/09/22 08:05:19;;;;;;;8.05;3.72;;;12.20;99.90;;;-147.18;100.00;67318.16;5027783;28;20414;-84
2022/09/22 08:08:46;;;;;;;11.23;3.60;;;12.30;99.90;;;-147.18;100.00;67318.16;5022897;28;20038;-83
2022/09/22 08:12:15;;;;;;;9.43;3.67;;;12.40;99.90;;;-147.18;100.00;67318.16;5027749;28;20052;-83
2022/09/22 08:15:43;;;;;;;9.43;3.60;;;12.50;99.90;;;-147.18;100.00;67318.16;5024535;28;20556;-83
2022/09/22 08:19:11;;;;;;;6.75;4.07;;;12.60;99.90;;;-147.18;100.00;67318.16;5026574;28;20042;-84
2022/09/22 08:22:40;;;;;;;7.78;3.50;;;12.70;99.90;;;-147.18;100.00;67318.16;5030843;28;20045;-84
2022/09/22 08:26:08;;;;;;;8.32;2.95;;;12.80;99.90;;;-147.18;100.00;67318.16;5029123;28;20057;-84
2022/09/22 08:29:34;;;;;;;7.55;3.72;;;12.90;99.90;;;-147.18;100.00;67318.16;5026475;28;20099;-85
2022/09/22 08:33:02;;;;;;;6.95;3.38;;;13.10;99.90;;;-147.18;100.00;67318.16;5009813;28;20033;-85
2022/09/22 08:36:28;;;;;;;7.45;3.03;;;13.10;99.90;;;-147.18;100.00;67318.16;5017099;28;20390;-84
2022/09/22 08:43:28;;;;;;;6.85;2.00;;;13.40;99.90;;;-147.18;100.00;67318.16;5001532;28;20038;-84
2022/09/22 08:46:56;;;;;;;8.70;1.85;;;13.50;99.90;;;-147.18;100.00;67318.16;5006026;28;20057;-85
2022/09/22 08:54:15;;;;;;;5.50;1.85;;;13.80;99.90;;;-147.18;100.00;67318.16;5011842;28;20631;-85
2022/09/22 08:57:55;;;;;;;6.63;1.73;;;13.90;99.90;;;-147.18;100.00;67318.16;5005682;28;20052;-84
2022/09/22 09:01:29;;;;;;;4.05;1.50;;;14.00;99.90;;;-147.18;100.00;67318.16;5017548;28;20049;-81
2022/09/22 09:05:12;;;;;;;5.25;1.90;;;14.20;99.90;;;-147.18;100.00;67318.16;5017748;28;20056;-84
2022/09/22 09:08:55;;;;;;;8.07;1.92;;;14.20;99.90;;;-147.18;100.00;67318.16;5008825;28;20048;-85
2022/09/22 09:12:44;;;;;;;4.15;1.60;;;14.30;99.90;;;-147.18;100.00;67318.16;5010210;28;20050;-84
2022/09/22 09:16:44;;;;;;;4.50;1.70;;;14.30;99.90;;;-147.18;100.00;67318.16;5016189;28;20046;-83
2022/09/22 09:20:18;;;;;;;5.10;1.60;;;14.50;99.90;;;-147.18;100.00;67318.16;5012479;28;20057;-84
2022/09/22 09:23:49;;;;;;;5.50;1.60;;;14.70;99.90;;;-147.18;100.00;67318.16;5029057;28;20048;-84
2022/09/22 09:27:19;;;;;;;3.65;1.40;;;14.80;99.90;;;-147.18;100.00;67318.16;5016482;28;20045;-85
2022/09/22 09:30:56;;;;;;;5.57;1.67;;;14.90;99.90;;;-147.18;100.00;67318.16;5016024;28;20053;-84
2022/09/22 09:34:28;;;;;;;3.17;1.30;;;14.90;99.90;;;-147.18;100.00;67318.16;5011376;28;20395;-85
2022/09/22 09:38:02;;;;;;;4.82;1.40;;;14.90;99.90;;;-147.18;100.00;67318.16;5011739;28;20042;-82
2022/09/22 09:41:31;;;;;;;4.30;1.40;;;15.00;99.90;;;-147.18;100.00;67318.16;5013584;28;20046;-84
2022/09/22 09:45:01;;;;;;;5.50;1.85;;;15.10;99.90;;;-147.18;100.00;67318.16;5013186;28;20049;-84
2022/09/22 09:48:57;;;;;;;4.97;1.45;;;15.10;99.90;;;-147.18;100.00;67318.16;5032379;28;20173;-82
2022/09/22 09:52:25;;;;;;;4.10;1.10;;;15.10;99.90;;;-147.18;100.00;67318.16;5030727;28;20045;-84
2022/09/22 09:55:52;;;;;;;3.25;1.15;;;15.20;99.90;;;-147.18;100.00;67318.16;5031769;28;20486;-84
2022/09/22 10:03:24;;;;;;;4.50;1.15;;;15.30;99.90;;;-147.18;100.00;67318.16;4976191;28;20059;-84
2022/09/22 10:06:54;;;;;;;5.35;1.20;;;15.30;99.00;;;-147.18;100.00;67318.16;5028218;28;20056;-81
2022/09/22 10:10:32;;;;;;;3.60;1.27;;;15.30;98.90;;;-147.18;100.00;67318.16;5014260;28;20037;-83
2022/09/22 10:14:31;;;;;;;4.63;1.58;;;15.40;99.00;;;-147.18;100.00;67318.16;4994965;28;20499;-80
2022/09/22 10:17:57;;;;;;;4.00;1.40;;;15.50;99.10;;;-147.18;100.00;67318.16;5012560;28;20046;-82
2022/09/22 10:21:26;;;;;;;3.00;1.23;;;15.50;96.00;;;-147.18;100.00;67318.16;5022981;28;20041;-82
2022/09/22 10:24:56;;;;;;;3.70;1.50;;;15.60;96.00;;;-147.18;100.00;67318.16;4995046;28;20506;-83
2022/09/22 10:28:24;;;;;;;3.47;1.30;;;15.70;97.30;;;-147.18;100.00;67318.16;5010788;28;20048;-84
2022/09/22 10:32:12;;;;;;;6.22;1.40;;;15.60;96.00;;;-147.18;100.00;67318.16;5023667;28;20125;-89
2022/09/22 10:35:40;;;;;;;3.40;1.30;;;15.70;96.90;;;-147.18;100.00;67318.16;5018495;28;20038;-87
2022/09/22 10:39:17;;;;;;;4.07;1.65;;;15.70;95.10;;;-147.18;100.00;67318.16;5023348;28;20042;-88
2022/09/22 10:42:47;;;;;;;3.60;1.25;;;15.80;94.80;;;-147.18;100.00;67318.16;5011818;28;20046;-82
2022/09/22 10:46:29;;;;;;;4.10;1.40;;;15.90;94.10;;;-147.18;100.00;67318.16;5011060;28;20117;-83
2022/09/22 10:50:28;;;;;;;2.92;1.40;;;15.90;94.20;;;-147.18;100.00;67318.16;5021113;28;20054;-84
2022/09/22 10:54:10;;;;;;;4.05;1.33;;;15.80;96.00;;;-147.18;100.00;67318.16;5017653;28;20776;-83
2022/09/22 10:57:53;;;;;;;;;;;15.90;96.40;;;-147.18;100.00;67318.16;5011952;28;20041;-85
2022/09/22 11:01:32;;;;;;;3.85;1.20;;;16.00;95.40;;;-147.18;100.00;67318.16;5031338;28;19925;-84
2022/09/22 11:13:25;;;;;;;4.63;1.85;;;16.10;93.30;;;-147.18;100.00;67318.16;5011212;28;20522;-82
2022/09/22 11:17:30;;;;;;;4.25;1.30;;;16.20;93.00;;;-147.18;100.00;67318.16;5010502;28;20037;-83
2022/09/22 11:21:15;;;;;;;2.78;1.10;;;16.20;91.80;;;-147.18;100.00;67318.16;5029650;28;20041;-83
2022/09/22 11:25:07;;;;;;;3.47;1.13;;;16.20;91.60;;;-147.18;100.00;67318.16;5015865;28;20042;-82
2022/09/22 11:28:51;;;;;;;3.08;1.48;;;16.20;92.80;;;-147.18;100.00;67318.16;5011204;28;20042;-84
2022/09/22 11:32:40;;;;;;;3.17;1.15;;;16.20;93.50;;;-147.18;100.00;67318.16;5010927;28;20056;-83
2022/09/22 11:36:36;;;;;;;4.63;1.42;;;16.20;92.90;;;-147.18;100.00;67318.16;5010354;28;20050;-83
2022/09/22 11:40:36;;;;;;;3.28;1.40;;;16.20;91.40;;;-147.18;100.00;67318.16;5019099;28;20606;-83
2022/09/22 11:44:47;;;;;;;4.00;1.40;;;16.20;90.60;;;-147.18;100.00;67318.16;5030080;28;20053;-81
2022/09/22 11:48:38;;;;;;;4.10;1.70;;;16.20;90.30;;;-147.18;100.00;67318.16;4995494;28;20061;-84
2022/09/22 11:52:20;;;;;;;8.20;1.30;;;16.20;92.10;;;-147.18;100.00;67318.16;5010957;28;20140;-84
2022/09/22 11:56:30;;;;;;;3.35;1.15;;;16.20;91.90;;;-147.18;100.00;67318.16;5015201;28;20038;-83
2022/09/22 12:00:02;;;;;;;3.33;1.40;;;16.10;90.00;;;-147.18;100.00;67318.16;5014419;28;20042;-82
2022/09/22 12:03:46;;;;;;;4.88;1.40;;;16.20;89.80;;;-147.18;100.00;67318.16;5030607;28;20049;-84
2022/09/22 12:07:17;;;;;;;4.18;1.50;;;16.20;89.60;;;-147.18;100.00;67318.16;5009439;28;20052;-83
2022/09/22 12:10:47;;;;;;;4.40;1.38;;;16.20;89.20;;;-147.18;100.00;67318.16;5030363;28;20116;-83
2022/09/22 12:14:15;;;;;;;5.57;1.40;;;16.20;89.40;;;-147.18;100.00;67318.16;5019560;28;20048;-83
2022/09/22 12:17:49;;;;;;;3.63;1.10;;;16.20;89.30;;;-147.18;100.00;67318.16;5009856;28;20048;-83
2022/09/22 12:21:33;;;;;;;2.72;1.20;;;16.30;89.20;;;-147.18;100.00;67318.16;5010525;28;20052;-83
2022/09/22 12:25:00;;;;;;;3.17;1.48;;;16.30;88.60;;;-147.18;100.00;67318.16;5025323;28;20124;-88
2022/09/22 12:28:29;;;;;;;3.20;1.45;;;16.30;87.50;;;-147.18;100.00;67318.16;5010669;28;20049;-86
2022/09/22 12:32:03;;;;;;;2.45;1.13;;;16.40;86.90;;;-147.18;100.00;67318.16;5030539;28;20041;-86
2022/09/22 12:35:33;;;;;;;3.45;1.08;;;16.40;88.20;;;-147.18;100.00;67318.16;5028150;28;20124;-87
2022/09/22 12:39:07;;;;;;;2.90;1.13;;;16.40;87.50;;;-147.18;100.00;67318.16;5029717;28;20043;-86
2022/09/22 12:42:43;;;;;;;2.13;1.08;;;16.40;86.70;;;-147.18;100.00;67318.16;5012038;28;20493;-87
2022/09/22 12:46:23;;;;;;;2.72;1.35;;;16.40;86.20;;;-147.18;100.00;67318.16;5019049;28;20042;-87
2022/09/22 12:49:51;;;;;;;3.10;1.45;;;16.50;86.40;;;-147.18;100.00;67318.16;5022505;28;20041;-87
2022/09/22 12:54:10;;;;;;;2.83;1.30;;;16.50;87.90;;;-147.18;100.00;67318.16;4999244;28;20392;-88
2022/09/22 12:57:45;;;;;;;3.88;1.23;;;16.50;85.40;;;-147.18;100.00;67318.16;5022906;28;20122;-87
2022/09/22 13:01:32;;;;;;;2.58;1.13;;;16.50;86.60;;;-147.18;100.00;67318.16;5029915;28;20042;-86
2022/09/22 13:05:34;;;;;;;3.75;1.40;;;16.60;83.50;;;-147.18;100.00;67318.16;5014256;28;20050;-88
2022/09/22 13:09:17;;;;;;;2.38;1.17;;;16.50;84.80;;;-147.18;100.00;67318.16;5012766;28;20565;-87
2022/09/22 13:13:22;;;;;;;3.30;1.17;;;16.50;85.10;;;-147.18;100.00;67318.16;5013847;28;20046;-87
2022/09/22 13:16:57;;;;;;;3.38;1.25;;;16.50;84.90;;;-147.18;100.00;67318.16;5012670;28;20103;-88
2022/09/22 13:20:24;;;;;;;4.93;1.45;;;16.50;83.20;;;-147.18;100.00;67318.16;5025454;28;20140;-82
2022/09/22 13:23:56;;;;;;;2.90;1.10;;;16.50;82.30;;;-147.18;100.00;67318.16;5014484;28;20731;-83
2022/09/22 13:27:23;;;;;;;2.92;1.20;;;16.60;80.90;;;-147.18;100.00;67318.16;5027576;28;20052;-86
2022/09/22 13:31:00;;;;;;;2.78;1.25;;;16.50;83.20;;;-147.18;100.00;67318.16;5011595;28;20034;-83
2022/09/22 13:34:28;;;;;;;4.43;1.25;;;16.60;82.40;;;-147.18;100.00;67318.16;5024239;28;20494;-83
2022/09/22 13:37:59;;;;;;;3.53;1.42;;;16.50;86.80;;;-147.18;100.00;67318.16;5023100;28;20797;-83
2022/09/22 13:41:28;;;;;;;4.30;1.52;;;16.60;83.20;;;-147.18;100.00;67318.16;5027004;28;20045;-83
2022/09/22 13:44:58;;;;;;;2.97;1.35;;;16.60;82.60;;;-147.18;100.00;67318.16;5019047;28;20046;-83
2022/09/22 13:48:25;;;;;;;3.95;1.30;;;16.60;81.60;;;-147.18;100.00;67318.16;5021510;28;20053;-83
2022/09/22 13:51:55;;;;;;;3.17;1.50;;;16.60;81.50;;;-147.18;100.00;67318.16;5021986;28;20092;-83
2022/09/22 13:55:25;;;;;;;4.03;1.48;;;16.60;82.30;;;-147.18;100.00;67318.16;5032024;28;20041;-83
2022/09/22 13:58:54;;;;;;;5.28;1.75;;;16.60;84.50;;;-147.18;100.00;67318.16;5027813;28;20502;-84
2022/09/22 14:02:23;;;;;;;4.05;1.40;;;16.60;83.60;;;-147.18;100.00;67318.16;5021707;28;20057;-84
2022/09/22 14:05:50;;;;;;;3.92;1.23;;;16.60;82.40;;;-147.18;100.00;67318.16;5022845;28;20076;-82
2022/09/22 14:09:23;;;;;;;4.05;1.45;;;16.70;82.40;;;-147.18;100.00;67318.16;5032109;28;20096;-87
2022/09/22 14:12:49;;;;;;;5.88;1.30;;;16.60;83.00;;;-147.18;100.00;67318.16;5021625;28;20050;-84
2022/09/22 14:16:40;;;;;;;2.92;1.27;;;16.60;83.10;;;-147.18;100.00;67318.16;5026092;28;20042;-85
2022/09/22 14:20:15;;;;;;;2.67;1.10;;;16.70;83.20;;;-147.18;100.00;67318.16;5027674;28;20041;-85
2022/09/22 14:23:45;;;;;;;2.95;1.30;;;16.70;82.80;;;-147.18;100.00;67318.16;5029591;28;20037;-84
2022/09/22 14:27:25;;;;;;;4.35;1.75;;;16.60;82.60;;;-147.18;100.00;67318.16;5024279;28;20049;-84
2022/09/22 14:30:52;;;;;;;3.72;1.40;;;16.70;83.70;;;-147.18;100.00;67318.16;5028018;28;20401;-85
2022/09/22 14:34:23;;;;;;;4.20;1.40;;;16.70;84.00;;;-147.18;100.00;67318.16;5011130;28;20065;-84
2022/09/22 14:37:51;;;;;;;4.05;1.20;;;16.70;84.70;;;-147.18;100.00;67318.16;5008366;28;20057;-85
2022/09/22 14:41:22;;;;;;;3.25;1.10;;;16.70;82.50;;;-147.18;100.00;67318.16;5002956;28;20132;-85
2022/09/22 14:44:49;;;;;;;2.78;1.20;;;16.70;82.30;;;-147.18;100.00;67318.16;5044067;28;20076;-89
2022/09/22 14:48:30;;;;;;;2.45;1.17;;;16.70;82.00;;;-147.18;100.00;67318.16;5032394;28;20475;-90
2022/09/22 14:51:59;;;;;;;3.47;1.20;;;16.70;82.40;;;-147.18;100.00;67318.16;5031434;28;20049;-89
2022/09/22 14:55:29;;;;;;;4.55;1.20;;;16.70;81.90;;;-147.18;100.00;67318.16;4994592;28;20045;-90
2022/09/22 14:58:58;;;;;;;3.83;1.35;;;16.70;82.10;;;-147.18;100.00;67318.16;5004924;28;20042;-88